Portada
METAR-TAF:

METAR-TAF

Aeroports :

Djibouti, Djibouti

latitud: 11-33N, longitud: 043-10E, altitud: 49 m

Observació

L'informe es va fer fa 4 hores i 17 minuts, a les 10:00 UTC
Vent 9 kt del Est
Temperatura 32°C
Humitat 67%
Pressió 1012 hPa
Visibilitat 10 km o més
Escasses núvols a una alçada de 2300 ft

METAR: HDAM 071000Z 08009KT 9999 FEW023 32/25 Q1012

Hora: 17:17 (14:17 UTC)

Pronòstic

L'informe es va fer fa 3 hores i 17 minuts, a les 11:00 UTC
Pronòstic vàlid del 07 a les 12 UTC al 08 a les 12 UTC
Vent 10 kt del Est
Visibilitat 10 km o més
Escasses núvols a una alçada de 2300 ft
Evolucionant progressivament
l' 07 a les 15 UTC al 07 a les 21 UTC
Vent 3 kt amb direcció variable
Núvols disperses a una alçada de 2000 ft
Evolucionant progressivament
l' 08 a les 00 UTC al 08 a les 06 UTC
Vent kt del Nord
Núvols disperses a una alçada de 2000 ft

TAF: HDAM 071100Z 0712/0812 08010KT 9999 FEW023 BECMG 0715/0721 VRB03KT SCT020 BECMG 0800/0806 00000KT SCT020

Observacions i pronòstics meteorològics de més de 4000 aeroports (METAR i TAF).

Les estacions disponibles són els punts grocs i vermells al mapa.

Posi el ratolí al punt desitjat per veure el nom de l'estació.

Feu clic per veure les observacions i els pronòstics meteorològics.

Per canviar el mapa: feu clic els botons verds amb una creu de color negre per apropar; al botó verd amb un guió per allunyar la imatge; o en les fletxes verdes per a mapes adjacents.


METAR-TAF: